KCKB

North Central West Virginia Airport

Clarksburg, West Virginia, USA
METAR KCKB 161014Z AUTO 22009KT 10SM FEW028 OVC055 M01/M07 A3009 RMK AO2 T10061067
Observed Flight Rules
Dec-16 @ 10:14 UTC (36 minutes ago) Visual Flight Rules
Wind Visibility Clouds
220° at 9 knots 10 miles
  • Few at 2,800' AGL
  • Overcast at 5,500' AGL
Temperatures Readings
Current -1°C / 30°F
Dewpoint -7°C / 19°F
Humidity 64%
Altimeter 30.09" Hg
Pressure 1019 hPa
Elevation 360
METAR KCKB 161014Z AUTO 22009KT 10SM FEW028 OVC055 M01/M07 A3009 RMK AO2 T10061067
Observed Flight Rules
Dec-16 @ 10:14 UTC
(36 minutes ago)
VFR
Wind Visibility
220° at 9 knots 10 miles
Clouds
  • Few at 2,800' AGL
  • Overcast at 5,500' AGL
Temperature Dewpoint
-1°C / 30°F -7°C / 19°F
Humidity Altimeter Pressure
64% 30.09" Hg 1019 hPa